createdAt,value
2023-04-02T00:01:39.797Z,99356.38
2023-04-02T00:04:12.809Z,99357.00
2023-04-02T00:06:40.118Z,99352.47
2023-04-02T00:09:15.621Z,99361.59
2023-04-02T00:11:44.394Z,99359.63
2023-04-02T00:14:32.333Z,99365.16
2023-04-02T00:17:02.254Z,99365.16
2023-04-02T00:19:35.397Z,99366.31
2023-04-02T00:22:03.222Z,99372.50
2023-04-02T00:24:29.833Z,99372.50
2023-04-02T00:26:56.437Z,99377.41
2023-04-02T00:29:23.086Z,99372.50
2023-04-02T00:31:54.481Z,99379.84
2023-04-02T00:34:24.121Z,99377.72
2023-04-02T00:36:52.327Z,99378.38
2023-04-02T00:39:23.673Z,99377.06
2023-04-02T00:41:54.268Z,99377.72
2023-04-02T00:44:20.915Z,99371.38
2023-04-02T00:46:48.964Z,99379.03
2023-04-02T00:49:18.254Z,99383.25
2023-04-02T00:51:51.196Z,99386.53
2023-04-02T00:54:21.725Z,99386.03
2023-04-02T00:56:54.975Z,99381.94
2023-04-02T00:59:34.216Z,99389.75
2023-04-02T01:02:22.815Z,99387.81
2023-04-02T01:04:58.426Z,99398.56
2023-04-02T01:07:51.252Z,99398.06
2023-04-02T01:10:29.773Z,99401.34
2023-04-02T01:13:39.810Z,99399.06
2023-04-02T01:16:15.485Z,99401.69
2023-04-02T01:18:44.829Z,99412.91
2023-04-02T01:21:21.050Z,99399.06
2023-04-02T01:24:02.137Z,99405.09
2023-04-02T01:26:43.715Z,99401.84
2023-04-02T01:29:16.338Z,99408.69
2023-04-02T01:31:45.419Z,99404.09
2023-04-02T01:34:16.709Z,99410.78
2023-04-02T01:36:49.335Z,99418.09
2023-04-02T01:39:33.692Z,99409.78
2023-04-02T01:42:06.076Z,99409.47
2023-04-02T01:44:39.923Z,99409.47
2023-04-02T01:47:12.093Z,99406.72
2023-04-02T01:49:40.120Z,99409.13
2023-04-02T01:52:07.428Z,99398.56
2023-04-02T01:54:36.824Z,99402.94
2023-04-02T01:57:04.723Z,99403.28
2023-04-02T01:59:31.443Z,99402.78
2023-04-02T02:02:12.172Z,99408.66
2023-04-02T02:04:39.747Z,99394.97
2023-04-02T02:07:11.873Z,99408.16
2023-04-02T02:09:38.633Z,99407.03
2023-04-02T02:12:05.465Z,99404.91
2023-04-02T02:14:33.257Z,99405.25
2023-04-02T02:17:02.421Z,99414.66
2023-04-02T02:19:35.181Z,99417.59
2023-04-02T02:22:26.799Z,99423.13
2023-04-02T02:24:55.213Z,99428.66
2023-04-02T02:27:21.863Z,99423.13
2023-04-02T02:30:00.167Z,99420.19
2023-04-02T02:32:31.627Z,99426.69
2023-04-02T02:35:28.930Z,99426.41
2023-04-02T02:38:06.235Z,99430.63
2023-04-02T02:40:40.853Z,99428.38
2023-04-02T02:43:12.481Z,99437.81
2023-04-02T02:45:42.840Z,99448.25
2023-04-02T02:48:14.300Z,99448.91
2023-04-02T02:50:41.860Z,99452.97
2023-04-02T02:53:20.306Z,99462.59
2023-04-02T02:55:49.115Z,99460.50
2023-04-02T02:58:25.112Z,99467.47
2023-04-02T03:00:51.888Z,99462.41
2023-04-02T03:03:26.503Z,99470.84
2023-04-02T03:05:56.780Z,99463.78
2023-04-02T03:08:34.728Z,99453.34
2023-04-02T03:11:15.976Z,99457.09
2023-04-02T03:13:46.180Z,99455.44
2023-04-02T03:16:23.020Z,99456.28
2023-04-02T03:19:06.225Z,99450.44
2023-04-02T03:21:50.824Z,99463.78
2023-04-02T03:24:52.303Z,99453.53
2023-04-02T03:27:25.275Z,99459.72
2023-04-02T03:30:48.064Z,99470.47
2023-04-02T03:33:29.733Z,99465.91
2023-04-02T03:36:10.552Z,99471.31
2023-04-02T03:38:43.675Z,99457.59
2023-04-02T03:41:10.112Z,99464.28
2023-04-02T03:44:05.643Z,99472.72
2023-04-02T03:46:42.873Z,99471.97
2023-04-02T03:49:43.855Z,99474.50
2023-04-02T03:52:27.114Z,99478.09
2023-04-02T03:54:59.170Z,99485.53
2023-04-02T03:57:31.265Z,99495.69
2023-04-02T04:00:04.575Z,99502.34
2023-04-02T04:02:41.207Z,99499.72
2023-04-02T04:05:24.307Z,99497.56
2023-04-02T04:07:55.690Z,99501.59
2023-04-02T04:10:26.118Z,99491.69
2023-04-02T04:12:56.605Z,99497.94
2023-04-02T04:15:53.658Z,99502.22
2023-04-02T04:18:34.014Z,99508.75
2023-04-02T04:21:26.278Z,99511.66
2023-04-02T04:23:52.862Z,99523.81
2023-04-02T04:26:43.693Z,99535.38
2023-04-02T04:29:47.651Z,99532.00
2023-04-02T04:32:26.153Z,99542.94
2023-04-02T04:34:59.200Z,99549.44
2023-04-02T04:37:32.857Z,99551.81
2023-04-02T04:40:11.310Z,99561.41
2023-04-02T04:42:41.837Z,99558.84
2023-04-02T04:45:28.685Z,99569.44
2023-04-02T04:48:00.041Z,99567.38
2023-04-02T04:51:00.737Z,99571.66
2023-04-02T04:53:30.031Z,99568.06
2023-04-02T04:56:06.017Z,99583.41
2023-04-02T04:58:50.672Z,99587.81
2023-04-02T05:01:40.713Z,99583.91
2023-04-02T05:04:26.250Z,99597.22
2023-04-02T05:07:00.827Z,99597.13
2023-04-02T05:09:33.072Z,99597.63
2023-04-02T05:12:18.255Z,99605.28
2023-04-02T05:14:51.948Z,99604.25
2023-04-02T05:17:24.426Z,99608.06
2023-04-02T05:20:26.044Z,99610.31
2023-04-02T05:23:15.118Z,99612.31
2023-04-02T05:26:21.185Z,99617.41
2023-04-02T05:28:50.788Z,99620.56
2023-04-02T05:31:25.272Z,99619.81
2023-04-02T05:33:52.897Z,99618.38
2023-04-02T05:36:20.713Z,99621.47
2023-04-02T05:38:48.692Z,99624.63
2023-04-02T05:41:28.797Z,99630.84
2023-04-02T05:44:01.611Z,99621.91
2023-04-02T05:46:33.726Z,99627.25
2023-04-02T05:49:00.557Z,99626.38
2023-04-02T05:51:47.105Z,99628.59
2023-04-02T05:54:29.413Z,99625.91
2023-04-02T05:57:10.197Z,99622.81
2023-04-02T05:59:47.127Z,99635.03
2023-04-02T06:02:26.672Z,99631.56
2023-04-02T06:04:58.982Z,99635.22
2023-04-02T06:07:42.003Z,99646.84
2023-04-02T06:10:24.640Z,99646.50
2023-04-02T06:12:57.317Z,99648.41
2023-04-02T06:15:24.684Z,99653.84
2023-04-02T06:17:59.764Z,99655.91
2023-04-02T06:20:26.885Z,99665.81
2023-04-02T06:22:58.858Z,99663.38
2023-04-02T06:25:33.785Z,99666.75
2023-04-02T06:28:03.820Z,99665.88
2023-04-02T06:30:34.107Z,99666.25
2023-04-02T06:33:00.908Z,99663.31
2023-04-02T06:35:27.791Z,99669.78
2023-04-02T06:37:58.057Z,99671.31
2023-04-02T06:40:33.729Z,99673.31
2023-04-02T06:43:06.302Z,99679.69
2023-04-02T06:45:38.334Z,99677.56
2023-04-02T06:48:05.829Z,99679.53
2023-04-02T06:50:55.668Z,99683.28
2023-04-02T06:53:27.676Z,99682.66
2023-04-02T06:56:04.011Z,99682.53
2023-04-02T06:58:30.582Z,99685.16
2023-04-02T07:00:57.276Z,99689.09
2023-04-02T07:03:27.194Z,99681.91
2023-04-02T07:05:54.508Z,99692.22
2023-04-02T07:08:21.631Z,99689.53
2023-04-02T07:10:48.268Z,99687.00
2023-04-02T07:13:23.323Z,99688.91
2023-04-02T07:15:54.435Z,99685.06
2023-04-02T07:18:30.988Z,99692.25
2023-04-02T07:20:57.766Z,99711.66
2023-04-02T07:23:24.948Z,99706.97
2023-04-02T07:25:54.199Z,99709.56
2023-04-02T07:28:22.757Z,99709.41
2023-04-02T07:30:51.100Z,99717.56
2023-04-02T07:33:23.056Z,99720.69
2023-04-02T07:35:50.463Z,99725.78
2023-04-02T07:38:17.237Z,99721.72
2023-04-02T07:40:43.999Z,99727.75
2023-04-02T07:43:11.050Z,99730.53
2023-04-02T07:45:38.114Z,99735.44
2023-04-02T07:48:09.545Z,99744.47
2023-04-02T07:50:36.433Z,99744.28
2023-04-02T07:53:03.232Z,99747.53
2023-04-02T07:55:29.837Z,99749.03
2023-04-02T07:57:58.621Z,99756.50
2023-04-02T08:00:26.642Z,99753.09
2023-04-02T08:02:53.545Z,99758.47
2023-04-02T08:05:20.452Z,99760.09
2023-04-02T08:07:55.150Z,99768.78
2023-04-02T08:10:21.661Z,99773.47
2023-04-02T08:12:48.355Z,99772.47
2023-04-02T08:15:15.955Z,99772.66
2023-04-02T08:17:43.417Z,99769.38
2023-04-02T08:20:19.304Z,99778.84
2023-04-02T08:22:46.845Z,99779.22
2023-04-02T08:25:13.790Z,99774.69
2023-04-02T08:27:40.388Z,99781.25
2023-04-02T08:30:08.943Z,99785.75
2023-04-02T08:32:35.611Z,99785.00
2023-04-02T08:35:02.367Z,99782.09
2023-04-02T08:37:28.889Z,99788.25
2023-04-02T08:39:55.591Z,99788.47
2023-04-02T08:42:44.269Z,99795.06
2023-04-02T08:45:47.330Z,99791.38
2023-04-02T08:48:14.715Z,99790.81
2023-04-02T08:50:43.412Z,99793.53
2023-04-02T08:53:22.599Z,99794.94
2023-04-02T08:56:06.876Z,99793.75
2023-04-02T08:58:36.248Z,99795.88
2023-04-02T09:01:06.429Z,99793.34
2023-04-02T09:03:41.665Z,99793.66
2023-04-02T09:06:14.774Z,99800.56
2023-04-02T09:08:44.913Z,99803.28
2023-04-02T09:11:17.274Z,99801.06
2023-04-02T09:13:47.290Z,99797.22
2023-04-02T09:16:17.152Z,99803.50
2023-04-02T09:18:45.466Z,99808.28
2023-04-02T09:21:20.957Z,99813.34
2023-04-02T09:23:48.849Z,99810.19
2023-04-02T09:26:26.048Z,99810.47
2023-04-02T09:29:02.459Z,99809.53
2023-04-02T09:31:39.298Z,99816.91
2023-04-02T09:34:27.734Z,99812.25
2023-04-02T09:36:54.426Z,99808.13
2023-04-02T09:39:23.660Z,99811.81
2023-04-02T09:41:58.998Z,99817.56
2023-04-02T09:44:31.408Z,99813.94
2023-04-02T09:47:02.046Z,99810.72
2023-04-02T09:49:32.491Z,99814.22
2023-04-02T09:52:28.944Z,99813.50
2023-04-02T09:55:22.380Z,99811.94
2023-04-02T09:57:50.929Z,99817.97
2023-04-02T10:03:23.789Z,99818.00
2023-04-02T10:06:06.565Z,99822.91
2023-04-02T10:08:33.877Z,99828.13
2023-04-02T10:11:03.709Z,99814.13
2023-04-02T10:13:36.004Z,99814.97
2023-04-02T10:16:11.518Z,99809.00
2023-04-02T10:18:50.268Z,99810.78
2023-04-02T10:21:25.738Z,99811.53
2023-04-02T10:23:52.322Z,99811.94
2023-04-02T10:26:21.523Z,99813.63
2023-04-02T10:29:06.705Z,99817.31
2023-04-02T10:31:51.681Z,99819.22
2023-04-02T10:34:26.148Z,99812.84
2023-04-02T10:36:55.354Z,99812.69
2023-04-02T10:39:34.401Z,99811.03
2023-04-02T10:42:20.040Z,99815.28
2023-04-02T10:44:55.415Z,99806.47
2023-04-02T10:47:43.426Z,99821.31
2023-04-02T10:50:34.512Z,99815.56
2023-04-02T10:53:24.645Z,99815.13
2023-04-02T10:55:58.875Z,99812.84
2023-04-02T10:58:28.774Z,99814.31
2023-04-02T11:01:01.407Z,99809.59
2023-04-02T11:03:39.417Z,99815.34
2023-04-02T11:06:17.569Z,99809.81
2023-04-02T11:08:47.222Z,99809.31
2023-04-02T11:11:27.787Z,99809.78
2023-04-02T11:13:58.699Z,99805.69
2023-04-02T11:16:25.845Z,99809.03
2023-04-02T11:19:17.335Z,99805.25
2023-04-02T11:22:00.063Z,99813.50
2023-04-02T11:24:30.408Z,99809.25
2023-04-02T11:27:26.051Z,99810.34
2023-04-02T11:30:04.527Z,99812.91
2023-04-02T11:32:49.848Z,99810.94
2023-04-02T11:35:31.811Z,99814.75
2023-04-02T11:38:18.584Z,99809.84
2023-04-02T11:40:45.185Z,99812.47
2023-04-02T11:43:35.243Z,99807.22
2023-04-02T11:46:25.950Z,99811.50
2023-04-02T11:48:52.497Z,99808.44
2023-04-02T11:51:21.846Z,99809.97
2023-04-02T11:53:53.891Z,99808.16
2023-04-02T11:56:29.466Z,99797.69
2023-04-02T11:59:15.650Z,99799.81
2023-04-02T12:02:00.216Z,99802.34
2023-04-02T12:04:54.618Z,99807.44
2023-04-02T12:07:45.208Z,99812.38
2023-04-02T12:10:24.548Z,99818.22
2023-04-02T12:12:51.343Z,99820.63
2023-04-02T12:15:30.005Z,99820.25
2023-04-02T12:18:06.482Z,99823.56
2023-04-02T12:20:34.257Z,99814.97
2023-04-02T12:23:01.886Z,99814.41
2023-04-02T12:25:34.465Z,99806.66
2023-04-02T12:28:19.232Z,99817.97
2023-04-02T12:30:47.847Z,99804.41
2023-04-02T12:33:20.282Z,99805.69
2023-04-02T12:35:48.732Z,99799.78
2023-04-02T12:38:46.412Z,99796.50
2023-04-02T12:41:26.562Z,99793.25
2023-04-02T12:44:17.670Z,99790.28
2023-04-02T12:46:46.316Z,99791.75
2023-04-02T12:49:37.056Z,99788.59
2023-04-02T12:52:12.974Z,99791.06
2023-04-02T12:54:51.450Z,99787.63
2023-04-02T12:57:26.775Z,99789.38
2023-04-02T13:00:01.716Z,99780.09
2023-04-02T13:02:42.824Z,99788.44
2023-04-02T13:05:10.076Z,99784.03
2023-04-02T13:07:37.427Z,99788.13
2023-04-02T13:10:24.770Z,99784.19
2023-04-02T13:12:57.573Z,99794.41
2023-04-02T13:15:33.164Z,99788.50
2023-04-02T13:18:06.948Z,99796.59
2023-04-02T13:20:42.421Z,99794.16
2023-04-02T13:23:27.343Z,99788.97
2023-04-02T13:25:54.335Z,99778.84
2023-04-02T13:28:21.427Z,99786.56
2023-04-02T13:30:48.125Z,99779.69
2023-04-02T13:33:15.408Z,99781.25
2023-04-02T13:35:43.182Z,99784.28
2023-04-02T13:38:10.088Z,99786.25
2023-04-02T13:40:37.877Z,99774.91
2023-04-02T13:43:06.435Z,99778.03
2023-04-02T13:45:36.823Z,99770.63
2023-04-02T13:48:04.231Z,99781.78
2023-04-02T13:50:33.124Z,99776.63
2023-04-02T13:53:07.198Z,99776.66
2023-04-02T13:55:38.626Z,99770.97
2023-04-02T13:58:05.858Z,99776.94
2023-04-02T14:00:33.703Z,99780.44
2023-04-02T14:03:10.894Z,99784.41
2023-04-02T14:05:46.452Z,99784.13
2023-04-02T14:08:28.228Z,99779.97
2023-04-02T14:11:02.673Z,99779.25
2023-04-02T14:13:44.124Z,99782.84
2023-04-02T14:16:41.314Z,99798.56
2023-04-02T14:19:34.422Z,99795.50
2023-04-02T14:22:28.783Z,99798.28
2023-04-02T14:25:34.264Z,99802.38
2023-04-02T14:28:39.390Z,99795.19
2023-04-02T14:31:18.319Z,99791.59
2023-04-02T14:34:05.081Z,99792.69
2023-04-02T14:36:56.131Z,99790.91
2023-04-02T14:39:25.655Z,99784.03
2023-04-02T14:41:57.215Z,99793.56
2023-04-02T14:44:27.870Z,99794.16
2023-04-02T14:47:05.284Z,99785.94
2023-04-02T14:49:37.165Z,99791.59
2023-04-02T14:52:06.037Z,99782.66
2023-04-02T14:54:59.344Z,99790.53
2023-04-02T14:57:30.735Z,99794.28
2023-04-02T15:00:03.196Z,99790.28
2023-04-02T15:03:03.118Z,99793.69
2023-04-02T15:05:39.722Z,99791.63
2023-04-02T15:08:48.339Z,99795.69
2023-04-02T15:11:30.983Z,99795.28
2023-04-02T15:14:20.155Z,99800.59
2023-04-02T15:16:47.045Z,99806.94
2023-04-02T15:19:16.527Z,99808.56
2023-04-02T15:21:59.092Z,99818.00
2023-04-02T15:24:55.896Z,99824.09
2023-04-02T15:27:37.377Z,99826.44
2023-04-02T15:30:26.864Z,99832.22
2023-04-02T15:33:16.106Z,99836.09
2023-04-02T15:35:51.495Z,99844.25
2023-04-02T15:38:30.988Z,99844.25
2023-04-02T15:41:08.640Z,99850.72
2023-04-02T15:43:48.261Z,99850.84
2023-04-02T15:46:33.629Z,99853.84
2023-04-02T15:49:21.885Z,99860.22
2023-04-02T15:51:59.471Z,99866.63
2023-04-02T15:54:25.978Z,99865.97
2023-04-02T15:57:42.856Z,99879.16
2023-04-02T16:00:38.566Z,99869.94
2023-04-02T16:03:20.756Z,99874.22
2023-04-02T16:06:08.793Z,99881.16
2023-04-02T16:09:00.394Z,99876.75
2023-04-02T16:11:26.971Z,99882.00
2023-04-02T16:14:16.837Z,99880.72
2023-04-02T16:16:47.984Z,99883.16
2023-04-02T16:19:38.481Z,99886.44
2023-04-02T16:22:34.244Z,99887.41
2023-04-02T16:25:13.432Z,99880.75
2023-04-02T16:28:22.544Z,99891.66
2023-04-02T16:30:53.153Z,99892.81
2023-04-02T16:33:28.437Z,99895.44
2023-04-02T16:36:13.491Z,99892.66
2023-04-02T16:38:59.277Z,99895.91
2023-04-02T16:41:47.637Z,99902.13
2023-04-02T16:44:52.509Z,99911.91
2023-04-02T16:48:00.881Z,99911.59
2023-04-02T16:50:55.821Z,99908.47
2023-04-02T16:54:01.093Z,99913.88
2023-04-02T16:56:35.462Z,99917.47
2023-04-02T16:59:14.056Z,99925.16
2023-04-02T17:01:53.775Z,99932.50
2023-04-02T17:04:44.898Z,99947.53
2023-04-02T17:07:26.582Z,99960.44
2023-04-02T17:10:00.560Z,99954.31
2023-04-02T17:12:44.385Z,99965.34
2023-04-02T17:15:28.618Z,99965.97
2023-04-02T17:18:00.952Z,99971.19
2023-04-02T17:20:28.268Z,99969.19
2023-04-02T17:22:56.121Z,99966.16
2023-04-02T17:25:28.142Z,99975.41
2023-04-02T17:27:56.763Z,99988.25
2023-04-02T17:30:43.630Z,99992.41
2023-04-02T17:33:15.736Z,99999.63
2023-04-02T17:36:17.717Z,100002.31
2023-04-02T17:38:52.843Z,100004.25
2023-04-02T17:41:29.457Z,100007.88
2023-04-02T17:44:24.391Z,100014.38
2023-04-02T17:47:22.419Z,100006.88
2023-04-02T17:50:14.854Z,100017.78
2023-04-02T17:52:54.236Z,100024.88
2023-04-02T17:55:58.262Z,100024.19
2023-04-02T17:59:05.239Z,100027.91
2023-04-02T18:01:44.074Z,100032.88
2023-04-02T18:04:28.030Z,100042.81
2023-04-02T18:07:19.112Z,100056.28
2023-04-02T18:10:24.186Z,100056.06
2023-04-02T18:12:54.262Z,100067.66
2023-04-02T18:15:53.632Z,100074.31
2023-04-02T18:18:28.913Z,100081.66
2023-04-02T18:21:07.169Z,100087.50
2023-04-02T18:23:37.783Z,100092.09
2023-04-02T18:26:38.954Z,100097.25
2023-04-02T18:29:24.088Z,100095.56
2023-04-02T18:31:56.204Z,100096.91
2023-04-02T18:34:53.009Z,100101.97
2023-04-02T18:37:41.952Z,100100.50
2023-04-02T18:40:26.484Z,100099.88
2023-04-02T18:42:53.007Z,100099.56
2023-04-02T18:45:28.920Z,100090.53
2023-04-02T18:48:43.206Z,100110.72
2023-04-02T18:51:21.989Z,100103.03
2023-04-02T18:54:18.398Z,100101.59
2023-04-02T18:56:45.044Z,100108.44
2023-04-02T18:59:32.366Z,100109.03
2023-04-02T19:02:05.674Z,100110.19
2023-04-02T19:04:34.760Z,100110.38
2023-04-02T19:07:06.778Z,100121.84
2023-04-02T19:09:41.043Z,100115.72
2023-04-02T19:12:15.639Z,100122.75
2023-04-02T19:14:42.324Z,100133.28
2023-04-02T19:17:33.533Z,100132.19
2023-04-02T19:20:12.008Z,100135.31
2023-04-02T19:22:54.361Z,100135.31
2023-04-02T19:25:35.738Z,100137.03
2023-04-02T19:28:12.985Z,100138.78
2023-04-02T19:31:23.420Z,100143.19
2023-04-02T19:33:58.122Z,100149.44
2023-04-02T19:36:24.677Z,100149.31
2023-04-02T19:39:31.751Z,100149.66
2023-04-02T19:42:22.587Z,100156.16
2023-04-02T19:44:51.924Z,100154.75
2023-04-02T19:47:20.067Z,100154.97
2023-04-02T19:49:46.805Z,100150.97
2023-04-02T19:52:13.610Z,100144.41
2023-04-02T19:54:40.301Z,100153.06
2023-04-02T19:57:07.133Z,100150.81
2023-04-02T19:59:33.799Z,100158.03
2023-04-02T20:02:00.366Z,100163.69
2023-04-02T20:04:26.976Z,100155.47
2023-04-02T20:06:53.626Z,100164.31
2023-04-02T20:09:20.196Z,100163.75
2023-04-02T20:11:46.834Z,100163.31
2023-04-02T20:14:13.549Z,100161.56
2023-04-02T20:16:40.179Z,100172.09
2023-04-02T20:19:06.895Z,100173.16
2023-04-02T20:21:33.511Z,100185.50
2023-04-02T20:24:00.200Z,100181.56
2023-04-02T20:26:26.895Z,100186.91
2023-04-02T20:28:53.560Z,100188.66
2023-04-02T20:31:20.204Z,100180.38
2023-04-02T20:33:47.099Z,100177.13
2023-04-02T20:36:17.196Z,100180.16
2023-04-02T20:38:44.419Z,100182.03
2023-04-02T20:41:11.142Z,100189.00
2023-04-02T20:43:38.166Z,100177.72
2023-04-02T20:46:06.300Z,100186.00
2023-04-02T20:48:35.121Z,100194.00
2023-04-02T20:51:03.568Z,100196.22
2023-04-02T20:53:32.141Z,100194.88
2023-04-02T20:56:10.190Z,100191.63
2023-04-02T20:58:38.326Z,100201.00
2023-04-02T21:01:13.306Z,100197.47
2023-04-02T21:03:39.964Z,100188.72
2023-04-02T21:06:12.172Z,100198.28
2023-04-02T21:08:38.745Z,100190.66
2023-04-02T21:11:06.143Z,100197.75
2023-04-02T21:13:34.001Z,100202.53
2023-04-02T21:16:00.625Z,100193.91
2023-04-02T21:18:27.362Z,100194.50
2023-04-02T21:20:58.400Z,100196.97
2023-04-02T21:23:25.220Z,100200.91
2023-04-02T21:25:56.566Z,100199.44
2023-04-02T21:28:23.543Z,100202.81
2023-04-02T21:30:50.093Z,100202.81
2023-04-02T21:33:16.662Z,100203.41
2023-04-02T21:35:43.307Z,100205.00
2023-04-02T21:38:09.893Z,100205.06
2023-04-02T21:40:36.495Z,100209.47
2023-04-02T21:43:03.143Z,100208.66
2023-04-02T21:45:29.655Z,100213.66
2023-04-02T21:47:56.194Z,100216.69
2023-04-02T21:50:22.835Z,100210.13
2023-04-02T21:52:49.384Z,100210.72
2023-04-02T21:55:16.024Z,100218.72
2023-04-02T21:57:42.559Z,100219.56
2023-04-02T22:00:09.665Z,100219.59
2023-04-02T22:02:36.289Z,100216.88
2023-04-02T22:05:02.950Z,100219.34
2023-04-02T22:07:29.553Z,100220.22
2023-04-02T22:09:56.053Z,100219.66
2023-04-02T22:12:22.669Z,100227.13
2023-04-02T22:14:49.275Z,100225.47
2023-04-02T22:17:15.801Z,100226.91
2023-04-02T22:19:42.368Z,100232.66
2023-04-02T22:22:08.920Z,100232.91
2023-04-02T22:24:35.515Z,100223.84
2023-04-02T22:27:02.070Z,100238.97
2023-04-02T22:29:28.692Z,100234.53
2023-04-02T22:31:55.190Z,100226.78
2023-04-02T22:34:21.744Z,100234.53
2023-04-02T22:36:48.356Z,100245.03
2023-04-02T22:39:15.004Z,100237.41
2023-04-02T22:41:41.610Z,100245.09
2023-04-02T22:44:13.693Z,100248.19
2023-04-02T22:46:40.262Z,100237.22
2023-04-02T22:49:06.899Z,100243.84
2023-04-02T22:51:33.466Z,100246.28
2023-04-02T22:53:59.962Z,100247.97
2023-04-02T22:56:28.842Z,100251.78
2023-04-02T22:58:55.595Z,100254.31
2023-04-02T23:01:32.511Z,100252.69
2023-04-02T23:03:59.509Z,100252.69
2023-04-02T23:06:26.544Z,100258.72
2023-04-02T23:08:53.448Z,100247.44
2023-04-02T23:11:22.985Z,100257.41
2023-04-02T23:13:51.926Z,100258.22
2023-04-02T23:16:19.532Z,100257.66
2023-04-02T23:18:46.537Z,100259.06
2023-04-02T23:21:13.272Z,100251.94
2023-04-02T23:23:40.328Z,100251.97
2023-04-02T23:26:06.798Z,100248.69
2023-04-02T23:28:34.604Z,100244.56
2023-04-02T23:31:02.885Z,100243.13
2023-04-02T23:33:29.413Z,100247.56
2023-04-02T23:35:56.076Z,100250.34
2023-04-02T23:38:22.711Z,100245.69
2023-04-02T23:40:49.322Z,100252.84
2023-04-02T23:43:16.085Z,100248.16
2023-04-02T23:45:47.267Z,100243.50
2023-04-02T23:48:13.816Z,100245.94
2023-04-02T23:50:40.462Z,100255.56
2023-04-02T23:53:07.137Z,100251.72
2023-04-02T23:55:33.656Z,100260.75
2023-04-02T23:58:00.201Z,100257.50
